createdAt,value
2022-08-21T00:02:17.212Z,18.29
2022-08-21T00:07:19.401Z,18.19
2022-08-21T00:12:21.063Z,18.08
2022-08-21T00:17:23.476Z,17.95
2022-08-21T00:22:25.267Z,17.88
2022-08-21T00:27:26.938Z,17.85
2022-08-21T00:32:28.695Z,17.78
2022-08-21T00:37:30.511Z,17.62
2022-08-21T00:42:33.399Z,17.49
2022-08-21T00:47:35.061Z,17.44
2022-08-21T00:52:36.921Z,17.42
2022-08-21T00:57:44.020Z,17.32
2022-08-21T01:02:45.748Z,17.19
2022-08-21T01:07:47.406Z,16.98
2022-08-21T01:12:49.144Z,16.82
2022-08-21T01:17:50.786Z,16.79
2022-08-21T01:22:52.429Z,16.78
2022-08-21T01:27:54.082Z,16.67
2022-08-21T01:32:56.106Z,16.56
2022-08-21T01:37:58.322Z,16.53
2022-08-21T01:43:00.008Z,16.50
2022-08-21T01:48:01.740Z,16.51
2022-08-21T01:53:03.613Z,16.44
2022-08-21T01:58:05.253Z,16.30
2022-08-21T02:03:06.894Z,16.21
2022-08-21T02:08:08.626Z,16.21
2022-08-21T02:13:13.417Z,16.10
2022-08-21T02:18:15.154Z,16.07
2022-08-21T02:23:16.846Z,16.12
2022-08-21T02:28:22.394Z,16.16
2022-08-21T02:33:24.263Z,16.07
2022-08-21T02:38:34.157Z,15.96
2022-08-21T02:43:36.536Z,15.84
2022-08-21T02:48:38.395Z,15.74
2022-08-21T02:53:40.669Z,15.66
2022-08-21T02:58:51.918Z,15.60
2022-08-21T03:03:54.520Z,15.55
2022-08-21T03:08:56.186Z,15.47
2022-08-21T03:13:57.825Z,15.37
2022-08-21T03:19:00.612Z,15.36
2022-08-21T03:24:02.964Z,15.26
2022-08-21T03:29:06.644Z,15.15
2022-08-21T03:34:08.279Z,15.02
2022-08-21T03:39:10.005Z,14.97
2022-08-21T03:44:12.694Z,14.87
2022-08-21T03:49:14.391Z,14.83
2022-08-21T03:54:16.095Z,14.71
2022-08-21T03:59:17.757Z,14.67
2022-08-21T04:04:19.422Z,14.68
2022-08-21T04:09:21.148Z,14.67
2022-08-21T04:14:23.431Z,14.58
2022-08-21T04:19:25.075Z,14.47
2022-08-21T04:24:26.722Z,14.48
2022-08-21T04:29:31.699Z,14.43
2022-08-21T04:34:33.357Z,14.46
2022-08-21T04:39:35.096Z,14.55
2022-08-21T04:44:36.824Z,14.65
2022-08-21T04:49:38.470Z,14.69
2022-08-21T04:54:40.240Z,14.88
2022-08-21T04:59:44.057Z,15.08
2022-08-21T05:04:51.242Z,15.09
2022-08-21T05:09:53.267Z,15.25
2022-08-21T05:14:54.920Z,15.31
2022-08-21T05:19:56.685Z,15.35
2022-08-21T05:24:58.388Z,15.37
2022-08-21T05:30:00.058Z,15.51
2022-08-21T05:35:01.899Z,15.67
2022-08-21T05:40:21.670Z,15.81
2022-08-21T05:45:41.906Z,15.76
2022-08-21T05:50:45.884Z,15.93
2022-08-21T05:55:48.076Z,16.01
2022-08-21T06:00:50.250Z,16.29
2022-08-21T06:05:52.414Z,16.55
2022-08-21T06:10:54.376Z,16.73
2022-08-21T06:16:23.664Z,16.89
2022-08-21T06:21:25.328Z,17.07
2022-08-21T06:26:27.044Z,17.22
2022-08-21T06:31:29.032Z,17.22
2022-08-21T06:36:30.711Z,17.08
2022-08-21T06:41:32.404Z,17.16
2022-08-21T06:46:40.755Z,17.37
2022-08-21T06:51:42.418Z,17.47
2022-08-21T06:56:44.130Z,17.67
2022-08-21T07:01:45.960Z,17.91
2022-08-21T07:06:47.629Z,18.02
2022-08-21T07:11:51.138Z,18.25
2022-08-21T07:16:52.851Z,18.42
2022-08-21T07:21:56.894Z,18.38
2022-08-21T07:26:58.534Z,18.46
2022-08-21T07:32:00.200Z,18.62
2022-08-21T07:37:06.106Z,18.82
2022-08-21T07:42:11.631Z,19.05
2022-08-21T07:47:13.286Z,19.18
2022-08-21T07:52:14.930Z,19.20
2022-08-21T07:57:16.808Z,19.25
2022-08-21T08:02:28.102Z,19.40
2022-08-21T08:07:29.757Z,19.60
2022-08-21T08:12:31.416Z,19.75
2022-08-21T08:17:35.887Z,19.95
2022-08-21T08:22:38.543Z,20.04
2022-08-21T08:27:40.228Z,20.10
2022-08-21T08:32:41.944Z,20.22
2022-08-21T08:37:46.753Z,20.25
2022-08-21T08:42:53.898Z,20.38
2022-08-21T08:48:03.581Z,20.38
2022-08-21T08:53:09.551Z,20.48
2022-08-21T08:58:24.543Z,20.59
2022-08-21T09:03:26.556Z,20.80
2022-08-21T09:08:51.516Z,20.95
2022-08-21T09:14:10.573Z,20.74
2022-08-21T09:19:27.772Z,20.77
2022-08-21T09:24:35.047Z,20.80
2022-08-21T09:29:38.885Z,20.80
2022-08-21T09:34:40.597Z,20.92
2022-08-21T09:39:46.848Z,20.94
2022-08-21T09:44:50.308Z,21.10
2022-08-21T09:49:51.973Z,21.31
2022-08-21T09:54:55.548Z,21.49
2022-08-21T09:59:57.232Z,21.63
2022-08-21T10:05:01.218Z,21.61
2022-08-21T10:10:05.826Z,21.59
2022-08-21T10:15:14.706Z,21.62
2022-08-21T10:20:26.281Z,21.74
2022-08-21T10:25:34.281Z,21.79
2022-08-21T10:30:51.740Z,21.97
2022-08-21T10:36:11.992Z,22.16
2022-08-21T10:41:26.937Z,22.33
2022-08-21T10:46:37.687Z,22.48
2022-08-21T10:52:10.791Z,22.64
2022-08-21T10:57:15.646Z,22.61
2022-08-21T11:02:37.874Z,22.63
2022-08-21T11:08:02.594Z,22.72
2022-08-21T11:13:12.451Z,22.77
2022-08-21T11:18:23.972Z,22.88
2022-08-21T11:23:29.350Z,22.93
2022-08-21T11:28:37.326Z,23.14
2022-08-21T11:33:57.967Z,23.27
2022-08-21T11:39:13.224Z,23.50
2022-08-21T11:44:36.177Z,23.94
2022-08-21T11:49:45.678Z,24.23
2022-08-21T11:55:07.440Z,24.46
2022-08-21T12:00:21.572Z,25.10
2022-08-21T12:05:34.037Z,25.57
2022-08-21T12:10:59.895Z,25.82
2022-08-21T12:16:15.824Z,26.43
2022-08-21T12:21:21.916Z,27.00
2022-08-21T12:26:34.143Z,26.24
2022-08-21T12:31:35.958Z,26.83
2022-08-21T12:37:01.820Z,26.74
2022-08-21T12:42:31.776Z,26.44
2022-08-21T12:47:49.816Z,26.24
2022-08-21T12:53:03.695Z,26.21
2022-08-21T12:58:05.948Z,26.68
2022-08-21T13:03:07.656Z,26.54
2022-08-21T13:08:11.161Z,27.04
2022-08-21T13:13:25.576Z,27.54
2022-08-21T13:18:31.156Z,28.07
2022-08-21T13:23:34.602Z,28.76
2022-08-21T13:28:38.545Z,29.19
2022-08-21T13:33:40.230Z,28.96
2022-08-21T13:38:42.730Z,28.27
2022-08-21T13:43:50.460Z,27.36
2022-08-21T13:48:52.157Z,26.80
2022-08-21T13:53:54.584Z,28.09
2022-08-21T13:58:57.083Z,28.70
2022-08-21T14:04:05.716Z,27.92
2022-08-21T14:09:32.751Z,29.28
2022-08-21T14:14:34.976Z,30.58
2022-08-21T14:19:42.605Z,30.11
2022-08-21T14:24:44.432Z,30.52
2022-08-21T14:29:51.556Z,30.22
2022-08-21T14:34:54.665Z,29.19
2022-08-21T14:39:56.852Z,30.01
2022-08-21T14:45:01.044Z,30.01
2022-08-21T14:50:02.709Z,29.54
2022-08-21T14:55:05.882Z,28.71
2022-08-21T15:00:09.163Z,29.14
2022-08-21T15:05:13.012Z,29.40
2022-08-21T15:10:16.947Z,28.78
2022-08-21T15:15:18.608Z,28.01
2022-08-21T15:20:20.302Z,27.77
2022-08-21T15:25:22.043Z,28.37
2022-08-21T15:30:23.807Z,28.77
2022-08-21T15:35:25.483Z,29.10
2022-08-21T15:40:27.558Z,28.99
2022-08-21T15:45:29.360Z,28.77
2022-08-21T15:50:32.880Z,28.82
2022-08-21T15:55:34.690Z,29.01
2022-08-21T16:00:36.362Z,29.16
2022-08-21T16:05:38.027Z,29.46
2022-08-21T16:10:40.349Z,28.74
2022-08-21T16:15:42.029Z,28.47
2022-08-21T16:20:43.689Z,28.43
2022-08-21T16:25:45.643Z,28.66
2022-08-21T16:30:48.195Z,28.81
2022-08-21T16:35:49.864Z,29.16
2022-08-21T16:40:51.546Z,29.02
2022-08-21T16:45:53.780Z,29.03
2022-08-21T16:50:56.559Z,29.46
2022-08-21T16:56:01.396Z,29.06
2022-08-21T17:01:07.500Z,29.24
2022-08-21T17:06:09.284Z,28.64
2022-08-21T17:11:37.430Z,28.36
2022-08-21T17:16:39.386Z,28.03
2022-08-21T17:21:41.183Z,27.70
2022-08-21T17:26:43.274Z,27.72
2022-08-21T17:31:45.063Z,27.72
2022-08-21T17:36:48.764Z,27.39
2022-08-21T17:41:56.320Z,27.30
2022-08-21T17:46:59.980Z,27.19
2022-08-21T17:52:01.638Z,26.84
2022-08-21T17:57:03.600Z,26.86
2022-08-21T18:02:12.569Z,26.78
2022-08-21T18:07:25.313Z,26.66
2022-08-21T18:12:34.259Z,26.32
2022-08-21T18:17:37.108Z,26.13
2022-08-21T18:22:38.770Z,25.95
2022-08-21T18:27:42.573Z,25.67
2022-08-21T18:32:44.713Z,25.47
2022-08-21T18:37:46.469Z,25.14
2022-08-21T18:42:55.702Z,24.88
2022-08-21T18:48:01.906Z,24.67
2022-08-21T18:53:07.986Z,24.44
2022-08-21T18:58:25.573Z,24.21
2022-08-21T19:03:27.296Z,23.94
2022-08-21T19:08:28.961Z,23.71
2022-08-21T19:13:31.777Z,23.50
2022-08-21T19:18:35.433Z,23.28
2022-08-21T19:23:37.198Z,22.99
2022-08-21T19:28:49.926Z,22.75
2022-08-21T19:34:04.767Z,22.47
2022-08-21T19:39:08.333Z,22.21
2022-08-21T19:44:10.484Z,22.01
2022-08-21T19:49:15.501Z,21.85
2022-08-21T19:54:28.163Z,21.68
2022-08-21T19:59:31.408Z,21.52
2022-08-21T20:04:33.107Z,21.38
2022-08-21T20:09:36.236Z,21.23
2022-08-21T20:14:41.432Z,21.03
2022-08-21T20:19:43.551Z,20.80
2022-08-21T20:24:46.602Z,20.66
2022-08-21T20:29:48.316Z,20.46
2022-08-21T20:34:53.783Z,20.24
2022-08-21T20:39:57.077Z,20.13
2022-08-21T20:44:59.091Z,19.97
2022-08-21T20:50:13.020Z,19.88
2022-08-21T20:55:16.045Z,19.79
2022-08-21T21:00:19.618Z,19.65
2022-08-21T21:05:28.026Z,19.47
2022-08-21T21:11:02.725Z,19.32
2022-08-21T21:16:14.199Z,19.15
2022-08-21T21:21:24.598Z,19.09
2022-08-21T21:26:46.260Z,19.04
2022-08-21T21:31:53.773Z,19.12
2022-08-21T21:37:42.521Z,19.02
2022-08-21T21:42:49.298Z,18.79
2022-08-21T21:48:00.591Z,18.53
2022-08-21T21:53:24.710Z,18.49
2022-08-21T21:58:36.100Z,18.40
2022-08-21T22:04:04.339Z,18.36
2022-08-21T22:09:13.938Z,18.31
2022-08-21T22:14:16.970Z,18.24
2022-08-21T22:19:28.088Z,18.08
2022-08-21T22:24:35.354Z,17.97
2022-08-21T22:29:54.167Z,17.93
2022-08-21T22:35:23.616Z,17.77
2022-08-21T22:40:35.019Z,17.57
2022-08-21T22:46:04.122Z,17.42
2022-08-21T22:51:11.516Z,17.23
2022-08-21T22:56:32.614Z,17.15
2022-08-21T23:01:40.212Z,17.12
2022-08-21T23:06:49.230Z,16.78
2022-08-21T23:11:55.528Z,16.64
2022-08-21T23:17:03.236Z,16.59
2022-08-21T23:22:28.828Z,16.63
2022-08-21T23:27:56.091Z,16.77
2022-08-21T23:33:09.912Z,16.83
2022-08-21T23:38:19.846Z,16.81
2022-08-21T23:43:44.207Z,16.77
2022-08-21T23:48:55.569Z,16.75
2022-08-21T23:54:40.640Z,16.64
2022-08-21T23:59:49.980Z,16.61
